createdAt,value
2022-09-20T00:00:08.018Z,98236.19
2022-09-20T00:01:14.032Z,98234.50
2022-09-20T00:02:17.395Z,98239.88
2022-09-20T00:03:21.892Z,98238.22
2022-09-20T00:04:25.528Z,98234.81
2022-09-20T00:05:30.359Z,98232.34
2022-09-20T00:06:34.264Z,98241.00
2022-09-20T00:07:38.625Z,98237.69
2022-09-20T00:08:42.567Z,98236.84
2022-09-20T00:09:48.482Z,98241.25
2022-09-20T00:10:53.455Z,98246.47
2022-09-20T00:11:59.347Z,98242.09
2022-09-20T00:13:02.795Z,98243.88
2022-09-20T00:14:09.019Z,98247.44
2022-09-20T00:15:12.408Z,98241.25
2022-09-20T00:16:19.313Z,98240.44
2022-09-20T00:17:22.865Z,98245.81
2022-09-20T00:18:27.396Z,98243.06
2022-09-20T00:19:30.665Z,98247.59
2022-09-20T00:20:35.613Z,98247.59
2022-09-20T00:21:39.350Z,98244.16
2022-09-20T00:22:44.036Z,98252.69
2022-09-20T00:23:47.592Z,98238.81
2022-09-20T00:24:53.571Z,98239.63
2022-09-20T00:25:57.917Z,98246.78
2022-09-20T00:27:02.266Z,98238.94
2022-09-20T00:28:06.219Z,98238.81
2022-09-20T00:29:10.457Z,98248.41
2022-09-20T00:30:14.204Z,98240.44
2022-09-20T00:31:18.491Z,98246.63
2022-09-20T00:32:21.699Z,98234.41
2022-09-20T00:33:46.780Z,98245.81
2022-09-20T00:35:08.687Z,98244.16
2022-09-20T00:36:18.215Z,98236.34
2022-09-20T00:37:22.484Z,98245.94
2022-09-20T00:38:25.580Z,98241.56
2022-09-20T00:39:29.902Z,98245.00
2022-09-20T00:40:34.781Z,98237.97
2022-09-20T00:41:39.109Z,98244.03
2022-09-20T00:42:42.480Z,98247.44
2022-09-20T00:43:47.657Z,98249.75
2022-09-20T00:44:56.622Z,98245.25
2022-09-20T00:46:01.110Z,98245.25
2022-09-20T00:47:04.984Z,98245.25
2022-09-20T00:48:13.613Z,98249.50
2022-09-20T00:49:19.245Z,98246.88
2022-09-20T00:50:33.427Z,98252.78
2022-09-20T00:51:39.121Z,98248.53
2022-09-20T00:52:46.037Z,98248.53
2022-09-20T00:53:51.427Z,98245.25
2022-09-20T00:54:56.448Z,98249.66
2022-09-20T00:56:04.407Z,98240.28
2022-09-20T00:57:08.918Z,98242.09
2022-09-20T00:58:13.945Z,98251.69
2022-09-20T00:59:19.456Z,98255.28
2022-09-20T01:00:24.334Z,98253.66
2022-09-20T01:01:28.060Z,98258.88
2022-09-20T01:02:33.861Z,98248.41
2022-09-20T01:03:39.567Z,98251.03
2022-09-20T01:04:43.370Z,98246.78
2022-09-20T01:05:48.294Z,98238.94
2022-09-20T01:06:53.298Z,98244.28
2022-09-20T01:07:58.465Z,98245.25
2022-09-20T01:09:04.374Z,98245.25
2022-09-20T01:10:09.131Z,98245.41
2022-09-20T01:11:13.817Z,98242.09
2022-09-20T01:12:20.494Z,98252.53
2022-09-20T01:13:24.875Z,98249.09
2022-09-20T01:14:28.143Z,98246.50
2022-09-20T01:15:33.234Z,98247.31
2022-09-20T01:16:37.325Z,98251.72
2022-09-20T01:17:43.248Z,98250.06
2022-09-20T01:18:47.118Z,98256.13
2022-09-20T01:20:01.934Z,98246.50
2022-09-20T01:21:07.403Z,98239.63
2022-09-20T01:22:15.614Z,98251.72
2022-09-20T01:23:31.414Z,98250.91
2022-09-20T01:24:39.194Z,98249.25
2022-09-20T01:26:16.319Z,98248.13
2022-09-20T01:27:25.026Z,98252.41
2022-09-20T01:28:30.294Z,98253.34
2022-09-20T01:29:46.832Z,98250.63
2022-09-20T01:30:58.076Z,98253.25
2022-09-20T01:32:04.363Z,98258.56
2022-09-20T01:33:11.206Z,98252.53
2022-09-20T01:34:17.136Z,98253.34
2022-09-20T01:35:21.727Z,98255.03
2022-09-20T01:36:28.416Z,98258.47
2022-09-20T01:37:38.461Z,98255.84
2022-09-20T01:38:47.202Z,98257.63
2022-09-20T01:39:55.908Z,98262.03
2022-09-20T01:41:06.300Z,98257.75
2022-09-20T01:42:11.756Z,98264.75
2022-09-20T01:43:22.173Z,98261.34
2022-09-20T01:44:32.726Z,98256.25
2022-09-20T01:45:37.035Z,98255.44
2022-09-20T01:46:43.676Z,98257.22
2022-09-20T01:47:53.456Z,98259.84
2022-09-20T01:49:06.241Z,98258.06
2022-09-20T01:50:19.064Z,98259.03
2022-09-20T01:52:01.759Z,98258.06
2022-09-20T01:53:42.452Z,98263.38
2022-09-20T01:55:24.697Z,98262.56
2022-09-20T01:57:13.525Z,98263.53
2022-09-20T01:59:23.230Z,98264.50
2022-09-20T02:00:32.113Z,98261.22
2022-09-20T02:02:12.199Z,98267.13
2022-09-20T02:03:48.042Z,98266.16
2022-09-20T02:05:29.468Z,98265.31
2022-09-20T02:06:50.056Z,98260.25
2022-09-20T02:08:11.475Z,98264.50
2022-09-20T02:09:37.404Z,98262.56
2022-09-20T02:11:05.706Z,98266.16
2022-09-20T02:12:20.484Z,98266.16
2022-09-20T02:13:31.328Z,98270.41
2022-09-20T02:14:42.087Z,98262.56
2022-09-20T02:16:15.524Z,98263.38
2022-09-20T02:17:23.315Z,98263.53
2022-09-20T02:18:39.914Z,98273.97
2022-09-20T02:20:09.512Z,98264.50
2022-09-20T02:21:20.026Z,98261.22
2022-09-20T02:22:33.384Z,98275.22
2022-09-20T02:23:44.465Z,98267.38
2022-09-20T02:25:00.449Z,98268.34
2022-09-20T02:26:19.865Z,98271.66
2022-09-20T02:27:28.454Z,98268.19
2022-09-20T02:28:44.948Z,98270.69
2022-09-20T02:30:01.615Z,98270.53
2022-09-20T02:31:12.179Z,98268.09
2022-09-20T02:32:29.798Z,98267.13
2022-09-20T02:33:59.944Z,98269.56
2022-09-20T02:35:20.708Z,98268.75
2022-09-20T02:36:35.596Z,98269.72
2022-09-20T02:37:56.363Z,98275.09
2022-09-20T02:39:04.960Z,98273.56
2022-09-20T02:40:20.413Z,98275.34
2022-09-20T02:41:48.753Z,98272.75
2022-09-20T02:42:58.339Z,98270.97
2022-09-20T02:44:10.696Z,98272.59
2022-09-20T02:45:54.421Z,98274.13
2022-09-20T02:47:43.706Z,98274.94
2022-09-20T02:48:55.045Z,98277.00
2022-09-20T02:50:08.227Z,98275.09
2022-09-20T02:51:18.520Z,98278.63
2022-09-20T02:52:30.021Z,98276.03
2022-09-20T02:53:41.485Z,98282.22
2022-09-20T02:54:54.864Z,98288.25
2022-09-20T02:56:05.479Z,98276.19
2022-09-20T02:57:17.455Z,98288.25
2022-09-20T02:58:31.507Z,98279.59
2022-09-20T02:59:42.055Z,98287.44
2022-09-20T03:00:50.136Z,98287.44
2022-09-20T03:02:08.355Z,98282.22
2022-09-20T03:03:16.708Z,98289.09
2022-09-20T03:04:30.749Z,98288.13
2022-09-20T03:05:47.784Z,98287.16
2022-09-20T03:06:57.267Z,98287.16
2022-09-20T03:08:15.795Z,98292.25
2022-09-20T03:09:27.893Z,98287.03
2022-09-20T03:10:36.841Z,98292.09
2022-09-20T03:11:45.712Z,98288.41
2022-09-20T03:13:01.735Z,98292.66
2022-09-20T03:14:15.162Z,98294.28
2022-09-20T03:15:27.167Z,98289.06
2022-09-20T03:16:37.705Z,98288.97
2022-09-20T03:17:49.054Z,98287.03
2022-09-20T03:19:00.389Z,98286.06
2022-09-20T03:20:17.241Z,98292.09
2022-09-20T03:21:30.225Z,98294.03
2022-09-20T03:22:43.218Z,98294.19
2022-09-20T03:23:55.341Z,98293.34
2022-09-20T03:25:16.077Z,98294.28
2022-09-20T03:26:32.255Z,98290.88
2022-09-20T03:27:43.058Z,98286.47
2022-09-20T03:29:06.352Z,98288.97
2022-09-20T03:30:29.268Z,98299.53
2022-09-20T03:31:47.120Z,98303.91
2022-09-20T03:32:59.759Z,98295.25
2022-09-20T03:34:15.477Z,98297.06
2022-09-20T03:35:30.300Z,98298.03
2022-09-20T03:36:48.786Z,98294.84
2022-09-20T03:38:03.580Z,98295.81
2022-09-20T03:39:47.276Z,98289.09
2022-09-20T03:41:24.145Z,98291.84
2022-09-20T03:42:30.239Z,98295.66
2022-09-20T03:43:45.098Z,98290.44
2022-09-20T03:45:26.522Z,98297.56
2022-09-20T03:46:31.226Z,98293.44
2022-09-20T03:47:50.626Z,98291.69
2022-09-20T03:49:29.639Z,98298.66
2022-09-20T03:50:45.873Z,98304.03
2022-09-20T03:51:59.203Z,98299.63
2022-09-20T03:53:25.557Z,98309.09
2022-09-20T03:54:53.215Z,98308.56
2022-09-20T03:56:30.153Z,98298.25
2022-09-20T03:57:46.490Z,98305.53
2022-09-20T03:59:01.255Z,98310.63
2022-09-20T04:00:12.600Z,98311.44
2022-09-20T04:01:36.575Z,98311.28
2022-09-20T04:03:12.631Z,98310.47
2022-09-20T04:04:23.616Z,98310.47
2022-09-20T04:05:35.700Z,98305.25
2022-09-20T04:06:51.274Z,98314.88
2022-09-20T04:08:01.640Z,98319.97
2022-09-20T04:09:30.414Z,98315.56
2022-09-20T04:10:45.673Z,98323.50
2022-09-20T04:11:55.705Z,98322.59
2022-09-20T04:13:13.263Z,98319.97
2022-09-20T04:14:21.286Z,98323.41
2022-09-20T04:15:33.353Z,98322.28
2022-09-20T04:16:43.308Z,98323.09
2022-09-20T04:17:52.948Z,98321.31
2022-09-20T04:18:59.559Z,98327.25
2022-09-20T04:20:06.566Z,98319.41
2022-09-20T04:21:15.852Z,98326.44
2022-09-20T04:22:21.867Z,98328.06
2022-09-20T04:23:38.111Z,98331.34
2022-09-20T04:24:46.313Z,98322.56
2022-09-20T04:25:51.741Z,98323.28
2022-09-20T04:27:00.445Z,98327.56
2022-09-20T04:28:06.653Z,98326.59
2022-09-20T04:29:21.623Z,98330.00
2022-09-20T04:30:30.445Z,98325.75
2022-09-20T04:31:37.781Z,98325.75
2022-09-20T04:32:44.554Z,98328.38
2022-09-20T04:33:51.036Z,98332.63
2022-09-20T04:35:18.853Z,98332.50
2022-09-20T04:36:39.361Z,98331.69
2022-09-20T04:37:44.516Z,98330.00
2022-09-20T04:38:54.900Z,98330.72
2022-09-20T04:40:04.802Z,98331.53
2022-09-20T04:41:23.016Z,98332.22
2022-09-20T04:43:20.380Z,98332.22
2022-09-20T04:44:56.219Z,98325.34
2022-09-20T04:46:29.079Z,98330.72
2022-09-20T04:48:09.334Z,98329.91
2022-09-20T04:49:32.679Z,98339.50
2022-09-20T04:51:20.070Z,98331.53
2022-09-20T04:53:02.545Z,98334.16
2022-09-20T04:54:36.612Z,98342.81
2022-09-20T04:55:53.107Z,98335.94
2022-09-20T04:57:23.605Z,98340.03
2022-09-20T04:58:42.421Z,98343.63
2022-09-20T05:00:00.060Z,98344.44
2022-09-20T05:01:42.745Z,98337.56
2022-09-20T05:03:20.785Z,98340.44
2022-09-20T05:05:02.060Z,98340.44
2022-09-20T05:06:27.841Z,98342.13
2022-09-20T05:08:14.523Z,98343.06
2022-09-20T05:09:44.636Z,98351.03
2022-09-20T05:11:13.762Z,98345.00
2022-09-20T05:12:37.443Z,98346.63
2022-09-20T05:13:53.124Z,98350.88
2022-09-20T05:15:12.658Z,98346.50
2022-09-20T05:16:22.610Z,98349.09
2022-09-20T05:17:38.531Z,98355.03
2022-09-20T05:19:07.652Z,98353.25
2022-09-20T05:20:25.773Z,98358.31
2022-09-20T05:22:00.223Z,98359.94
2022-09-20T05:23:37.622Z,98353.09
2022-09-20T05:25:08.009Z,98359.44
2022-09-20T05:26:14.385Z,98357.78
2022-09-20T05:27:29.401Z,98361.06
2022-09-20T05:28:38.678Z,98362.72
2022-09-20T05:29:51.153Z,98358.19
2022-09-20T05:30:57.839Z,98365.88
2022-09-20T05:32:06.473Z,98366.56
2022-09-20T05:33:20.636Z,98364.66
2022-09-20T05:34:35.213Z,98365.47
2022-09-20T05:35:43.550Z,98364.66
2022-09-20T05:36:56.491Z,98362.72
2022-09-20T05:38:05.814Z,98371.38
2022-09-20T05:39:23.028Z,98372.19
2022-09-20T05:40:33.340Z,98367.13
2022-09-20T05:41:43.017Z,98365.19
2022-09-20T05:42:54.193Z,98377.28
2022-09-20T05:44:06.059Z,98375.38
2022-09-20T05:45:24.053Z,98370.00
2022-09-20T05:46:35.768Z,98372.59
2022-09-20T05:47:45.284Z,98372.34
2022-09-20T05:48:57.737Z,98376.44
2022-09-20T05:50:11.359Z,98373.56
2022-09-20T05:51:24.171Z,98374.00
2022-09-20T05:52:38.731Z,98380.72
2022-09-20T05:54:14.284Z,98371.63
2022-09-20T05:55:36.825Z,98371.78
2022-09-20T05:56:50.198Z,98377.69
2022-09-20T05:58:05.140Z,98372.34
2022-09-20T05:59:26.083Z,98380.69
2022-09-20T06:00:33.213Z,98382.09
2022-09-20T06:01:41.974Z,98382.75
2022-09-20T06:02:54.242Z,98387.88
2022-09-20T06:04:08.411Z,98381.66
2022-09-20T06:05:16.473Z,98381.53
2022-09-20T06:06:23.859Z,98384.69
2022-09-20T06:07:34.529Z,98380.03
2022-09-20T06:09:05.426Z,98377.09
2022-09-20T06:10:31.242Z,98391.13
2022-09-20T06:11:56.601Z,98385.91
2022-09-20T06:13:09.089Z,98384.28
2022-09-20T06:14:22.234Z,98394.84
2022-09-20T06:15:28.514Z,98395.00
2022-09-20T06:16:43.605Z,98391.56
2022-09-20T06:17:54.784Z,98391.56
2022-09-20T06:19:06.402Z,98392.94
2022-09-20T06:20:18.830Z,98391.53
2022-09-20T06:21:31.491Z,98397.44
2022-09-20T06:22:39.553Z,98396.50
2022-09-20T06:23:44.132Z,98389.75
2022-09-20T06:24:49.766Z,98394.84
2022-09-20T06:25:57.514Z,98399.22
2022-09-20T06:27:04.651Z,98401.03
2022-09-20T06:28:14.912Z,98402.00
2022-09-20T06:29:22.680Z,98395.94
2022-09-20T06:30:30.666Z,98392.22
2022-09-20T06:31:34.954Z,98391.13
2022-09-20T06:32:53.762Z,98398.81
2022-09-20T06:34:02.322Z,98401.16
2022-09-20T06:35:06.207Z,98398.41
2022-09-20T06:36:39.262Z,98403.34
2022-09-20T06:38:03.488Z,98402.94
2022-09-20T06:39:30.134Z,98398.38
2022-09-20T06:40:58.018Z,98404.16
2022-09-20T06:42:03.732Z,98401.66
2022-09-20T06:43:06.954Z,98408.84
2022-09-20T06:44:11.162Z,98416.69
2022-09-20T06:45:15.432Z,98410.63
2022-09-20T06:46:18.583Z,98408.84
2022-09-20T06:47:23.565Z,98419.28
2022-09-20T06:48:32.231Z,98422.88
2022-09-20T06:49:36.748Z,98417.66
2022-09-20T06:50:39.882Z,98415.84
2022-09-20T06:51:44.113Z,98420.25
2022-09-20T06:52:48.584Z,98422.88
2022-09-20T06:53:52.819Z,98418.75
2022-09-20T06:54:57.801Z,98424.78
2022-09-20T06:56:01.742Z,98425.59
2022-09-20T06:57:07.753Z,98426.47
2022-09-20T06:58:11.260Z,98427.28
2022-09-20T06:59:15.732Z,98421.91
2022-09-20T07:00:19.826Z,98424.22
2022-09-20T07:01:30.069Z,98429.84
2022-09-20T07:02:34.871Z,98425.19
2022-09-20T07:03:39.046Z,98426.69
2022-09-20T07:04:43.879Z,98423.78
2022-09-20T07:05:47.201Z,98429.56
2022-09-20T07:06:51.350Z,98431.06
2022-09-20T07:07:57.933Z,98425.56
2022-09-20T07:09:02.239Z,98428.84
2022-09-20T07:10:07.054Z,98430.34
2022-09-20T07:11:15.214Z,98428.56
2022-09-20T07:12:19.822Z,98424.97
2022-09-20T07:13:24.316Z,98439.56
2022-09-20T07:14:29.036Z,98444.50
2022-09-20T07:15:33.521Z,98445.88
2022-09-20T07:16:37.887Z,98435.97
2022-09-20T07:17:40.863Z,98438.16
2022-09-20T07:18:45.170Z,98443.47
2022-09-20T07:19:49.318Z,98439.22
2022-09-20T07:20:52.546Z,98443.69
2022-09-20T07:21:57.042Z,98446.44
2022-09-20T07:23:01.334Z,98446.53
2022-09-20T07:24:04.770Z,98442.91
2022-09-20T07:25:09.994Z,98448.53
2022-09-20T07:26:18.516Z,98449.72
2022-09-20T07:27:28.633Z,98453.16
2022-09-20T07:28:33.873Z,98455.19
2022-09-20T07:29:38.255Z,98453.09
2022-09-20T07:30:43.207Z,98461.47
2022-09-20T07:31:46.466Z,98454.75
2022-09-20T07:32:50.668Z,98457.38
2022-09-20T07:33:53.799Z,98454.75
2022-09-20T07:34:58.002Z,98451.31
2022-09-20T07:36:01.125Z,98451.44
2022-09-20T07:37:05.809Z,98461.78
2022-09-20T07:38:08.988Z,98465.22
2022-09-20T07:39:13.172Z,98457.53
2022-09-20T07:40:17.599Z,98452.41
2022-09-20T07:41:23.187Z,98462.06
2022-09-20T07:42:29.953Z,98460.13
2022-09-20T07:43:34.333Z,98466.19
2022-09-20T07:44:37.394Z,98467.16
2022-09-20T07:45:42.075Z,98461.25
2022-09-20T07:46:48.858Z,98463.19
2022-09-20T07:47:53.812Z,98466.63
2022-09-20T07:48:56.830Z,98460.25
2022-09-20T07:50:01.142Z,98466.72
2022-09-20T07:51:08.998Z,98472.66
2022-09-20T07:52:14.919Z,98478.38
2022-09-20T07:53:18.021Z,98476.03
2022-09-20T07:54:22.252Z,98473.09
2022-09-20T07:55:25.652Z,98475.13
2022-09-20T07:56:29.863Z,98478.44
2022-09-20T07:57:38.595Z,98475.97
2022-09-20T07:58:43.382Z,98480.38
2022-09-20T07:59:46.590Z,98475.13
2022-09-20T08:00:55.110Z,98475.13
2022-09-20T08:02:00.878Z,98487.09
2022-09-20T08:03:06.260Z,98477.81
2022-09-20T08:04:11.432Z,98483.59
2022-09-20T08:05:14.399Z,98480.97
2022-09-20T08:06:19.014Z,98480.44
2022-09-20T08:07:23.282Z,98478.09
2022-09-20T08:08:26.376Z,98480.38
2022-09-20T08:09:30.679Z,98490.31
2022-09-20T08:10:33.919Z,98488.28
2022-09-20T08:11:39.771Z,98489.34
2022-09-20T08:14:11.429Z,98495.78
2022-09-20T08:15:34.237Z,98485.34
2022-09-20T08:16:43.751Z,98483.19
2022-09-20T08:17:49.835Z,98480.69
2022-09-20T08:18:55.893Z,98486.50
2022-09-20T08:20:01.028Z,98492.31
2022-09-20T08:21:06.789Z,98490.41
2022-09-20T08:22:12.831Z,98488.91
2022-09-20T08:23:23.528Z,98489.19
2022-09-20T08:24:28.493Z,98492.78
2022-09-20T08:25:31.884Z,98492.91
2022-09-20T08:26:36.753Z,98490.16
2022-09-20T08:27:41.142Z,98487.53
2022-09-20T08:28:46.471Z,98490.88
2022-09-20T08:29:55.728Z,98495.94
2022-09-20T08:31:03.113Z,98497.75
2022-09-20T08:32:07.655Z,98497.75
2022-09-20T08:33:11.834Z,98490.56
2022-09-20T08:34:18.740Z,98497.97
2022-09-20T08:35:25.793Z,98501.81
2022-09-20T08:36:35.909Z,98503.47
2022-09-20T08:37:41.432Z,98496.31
2022-09-20T08:40:11.575Z,98498.34
2022-09-20T08:41:18.571Z,98496.81
2022-09-20T08:42:33.944Z,98499.59
2022-09-20T08:43:45.638Z,98500.84
2022-09-20T08:45:00.962Z,98501.97
2022-09-20T08:46:07.229Z,98508.84
2022-09-20T08:47:24.119Z,98507.88
2022-09-20T08:48:33.654Z,98509.50
2022-09-20T08:49:37.641Z,98509.00
2022-09-20T08:51:07.024Z,98503.06
2022-09-20T08:52:41.781Z,98504.34
2022-09-20T08:53:53.805Z,98505.28
2022-09-20T08:55:13.796Z,98508.28
2022-09-20T08:57:58.321Z,98511.50
2022-09-20T08:59:20.201Z,98505.81
2022-09-20T09:00:27.603Z,98497.75
2022-09-20T09:01:32.655Z,98504.72
2022-09-20T09:02:41.895Z,98507.28
2022-09-20T09:03:46.381Z,98512.63
2022-09-20T09:04:51.780Z,98510.25
2022-09-20T09:05:58.397Z,98510.63
2022-09-20T09:07:02.919Z,98501.94
2022-09-20T09:08:16.665Z,98508.97
2022-09-20T09:09:23.590Z,98502.59
2022-09-20T09:10:42.571Z,98507.25
2022-09-20T09:11:48.161Z,98505.16
2022-09-20T09:12:52.311Z,98507.50
2022-09-20T09:14:02.840Z,98510.63
2022-09-20T09:15:21.826Z,98507.53
2022-09-20T09:16:35.330Z,98510.88
2022-09-20T09:17:40.339Z,98509.56
2022-09-20T09:18:45.861Z,98509.44
2022-09-20T09:19:52.381Z,98509.56
2022-09-20T09:20:55.910Z,98509.88
2022-09-20T09:22:01.765Z,98509.66
2022-09-20T09:23:09.292Z,98506.50
2022-09-20T09:24:18.665Z,98507.78
2022-09-20T09:25:29.000Z,98509.88
2022-09-20T09:26:38.393Z,98509.88
2022-09-20T09:27:51.312Z,98512.47
2022-09-20T09:29:16.182Z,98510.41
2022-09-20T09:30:26.529Z,98518.53
2022-09-20T09:31:31.377Z,98514.59
2022-09-20T09:32:37.809Z,98520.28
2022-09-20T09:33:45.500Z,98510.09
2022-09-20T09:34:49.750Z,98510.25
2022-09-20T09:35:59.384Z,98515.47
2022-09-20T09:37:02.629Z,98513.97
2022-09-20T09:38:06.869Z,98517.41
2022-09-20T09:39:22.564Z,98511.50
2022-09-20T09:40:26.972Z,98512.63
2022-09-20T09:41:33.512Z,98515.38
2022-09-20T09:42:36.700Z,98512.91
2022-09-20T09:43:41.373Z,98516.34
2022-09-20T09:44:44.888Z,98515.25
2022-09-20T09:45:49.423Z,98510.69
2022-09-20T09:46:54.609Z,98510.25
2022-09-20T09:48:00.910Z,98507.78
2022-09-20T09:49:20.428Z,98510.25
2022-09-20T09:50:25.511Z,98512.16
2022-09-20T09:51:30.118Z,98509.03
2022-09-20T09:52:35.734Z,98511.81
2022-09-20T09:53:50.592Z,98514.56
2022-09-20T09:55:02.883Z,98506.47
2022-09-20T09:56:28.493Z,98508.88
2022-09-20T09:57:46.520Z,98508.09
2022-09-20T09:59:01.555Z,98502.91
2022-09-20T10:00:17.825Z,98504.75
2022-09-20T10:01:33.334Z,98500.38
2022-09-20T10:02:51.791Z,98505.06
2022-09-20T10:03:59.555Z,98506.88
2022-09-20T10:05:06.271Z,98511.13
2022-09-20T10:06:20.557Z,98498.03
2022-09-20T10:07:29.520Z,98503.81
2022-09-20T10:08:39.412Z,98502.13
2022-09-20T10:10:00.492Z,98502.59
2022-09-20T10:11:11.123Z,98508.03
2022-09-20T10:12:26.449Z,98506.25
2022-09-20T10:13:40.311Z,98503.13
2022-09-20T10:14:58.042Z,98507.16
2022-09-20T10:16:07.438Z,98500.00
2022-09-20T10:17:25.713Z,98507.94
2022-09-20T10:18:40.039Z,98505.97
2022-09-20T10:19:54.942Z,98504.97
2022-09-20T10:21:08.307Z,98505.91
2022-09-20T10:22:19.943Z,98502.13
2022-09-20T10:24:02.073Z,98502.44
2022-09-20T10:25:09.453Z,98501.81
2022-09-20T10:26:24.770Z,98501.41
2022-09-20T10:27:39.980Z,98505.00
2022-09-20T10:28:54.491Z,98504.19
2022-09-20T10:30:05.416Z,98504.72
2022-09-20T10:31:14.272Z,98503.34
2022-09-20T10:32:27.727Z,98504.94
2022-09-20T10:33:38.351Z,98499.84
2022-09-20T10:35:05.201Z,98492.94
2022-09-20T10:36:17.126Z,98497.38
2022-09-20T10:37:27.796Z,98491.88
2022-09-20T10:38:33.963Z,98487.34
2022-09-20T10:39:38.781Z,98492.00
2022-09-20T10:41:13.868Z,98486.47
2022-09-20T10:42:44.691Z,98494.16
2022-09-20T10:44:04.283Z,98485.97
2022-09-20T10:45:34.909Z,98483.97
2022-09-20T10:46:53.333Z,98470.31
2022-09-20T10:48:04.410Z,98483.94
2022-09-20T10:49:23.914Z,98479.34
2022-09-20T10:50:34.821Z,98477.50
2022-09-20T10:51:45.289Z,98481.06
2022-09-20T10:53:00.070Z,98477.22
2022-09-20T10:54:12.000Z,98482.47
2022-09-20T10:55:26.363Z,98487.38
2022-09-20T10:56:34.112Z,98486.28
2022-09-20T10:57:54.061Z,98481.97
2022-09-20T10:59:22.672Z,98477.16
2022-09-20T11:00:29.094Z,98481.09
2022-09-20T11:01:37.308Z,98484.94
2022-09-20T11:02:47.894Z,98479.50
2022-09-20T11:04:08.609Z,98477.81
2022-09-20T11:05:30.019Z,98481.38
2022-09-20T11:06:44.522Z,98480.78
2022-09-20T11:07:56.529Z,98486.06
2022-09-20T11:09:01.860Z,98487.22
2022-09-20T11:10:12.673Z,98483.78
2022-09-20T11:11:20.912Z,98487.13
2022-09-20T11:12:27.837Z,98493.94
2022-09-20T11:13:35.586Z,98484.91
2022-09-20T11:14:43.444Z,98485.50
2022-09-20T11:15:50.688Z,98482.19
2022-09-20T11:16:59.828Z,98484.31
2022-09-20T11:18:08.256Z,98488.97
2022-09-20T11:19:23.690Z,98482.06
2022-09-20T11:20:30.786Z,98497.22
2022-09-20T11:21:38.590Z,98494.47
2022-09-20T11:22:45.240Z,98501.91
2022-09-20T11:23:53.529Z,98512.56
2022-09-20T11:25:01.061Z,98505.25
2022-09-20T11:26:10.534Z,98507.34
2022-09-20T11:27:18.673Z,98517.00
2022-09-20T11:28:26.531Z,98510.53
2022-09-20T11:29:36.188Z,98504.41
2022-09-20T11:30:52.123Z,98507.78
2022-09-20T11:31:59.398Z,98505.44
2022-09-20T11:33:06.967Z,98507.19
2022-09-20T11:34:16.033Z,98502.88
2022-09-20T11:35:29.931Z,98501.13
2022-09-20T11:36:38.627Z,98500.88
2022-09-20T11:37:46.379Z,98500.50
2022-09-20T11:38:53.511Z,98498.16
2022-09-20T11:40:23.488Z,98498.69
2022-09-20T11:41:35.351Z,98500.38
2022-09-20T11:42:40.992Z,98498.78
2022-09-20T11:43:46.202Z,98499.59
2022-09-20T11:44:51.280Z,98497.19
2022-09-20T11:45:57.433Z,98490.22
2022-09-20T11:47:11.780Z,98485.34
2022-09-20T11:48:18.376Z,98496.44
2022-09-20T11:49:25.480Z,98488.75
2022-09-20T11:51:02.371Z,98486.69
2022-09-20T11:52:28.907Z,98491.13
2022-09-20T11:53:44.744Z,98492.78
2022-09-20T11:55:06.187Z,98492.88
2022-09-20T11:56:16.392Z,98494.72
2022-09-20T11:57:19.454Z,98491.56
2022-09-20T11:58:23.618Z,98499.31
2022-09-20T11:59:30.528Z,98486.19
2022-09-20T12:00:38.816Z,98492.00
2022-09-20T12:01:43.556Z,98491.19
2022-09-20T12:02:50.299Z,98488.91
2022-09-20T12:04:14.266Z,98497.28
2022-09-20T12:05:38.326Z,98492.91
2022-09-20T12:06:43.081Z,98491.69
2022-09-20T12:07:47.378Z,98491.00
2022-09-20T12:08:52.906Z,98499.13
2022-09-20T12:09:57.509Z,98494.75
2022-09-20T12:11:04.823Z,98496.00
2022-09-20T12:12:29.229Z,98493.22
2022-09-20T12:13:36.851Z,98487.63
2022-09-20T12:14:39.979Z,98488.16
2022-09-20T12:15:44.396Z,98487.63
2022-09-20T12:16:49.784Z,98481.41
2022-09-20T12:18:24.325Z,98484.41
2022-09-20T12:19:39.801Z,98482.81
2022-09-20T12:21:15.919Z,98484.88
2022-09-20T12:22:31.523Z,98483.00
2022-09-20T12:24:10.449Z,98473.22
2022-09-20T12:25:36.930Z,98476.72
2022-09-20T12:26:48.211Z,98479.97
2022-09-20T12:27:58.442Z,98469.94
2022-09-20T12:29:02.762Z,98470.28
2022-09-20T12:30:17.695Z,98469.00
2022-09-20T12:31:40.103Z,98482.84
2022-09-20T12:32:56.562Z,98480.56
2022-09-20T12:34:02.120Z,98481.53
2022-09-20T12:36:01.528Z,98485.81
2022-09-20T12:37:23.321Z,98482.19
2022-09-20T12:38:33.691Z,98484.28
2022-09-20T12:39:39.326Z,98487.63
2022-09-20T12:41:03.941Z,98493.13
2022-09-20T12:42:28.401Z,98501.16
2022-09-20T12:43:32.850Z,98494.06
2022-09-20T12:44:38.647Z,98499.09
2022-09-20T12:45:41.723Z,98496.22
2022-09-20T12:46:53.445Z,98494.25
2022-09-20T12:47:58.558Z,98499.31
2022-09-20T12:49:42.072Z,98492.97
2022-09-20T12:51:16.632Z,98491.88
2022-09-20T12:52:48.109Z,98498.13
2022-09-20T12:54:08.952Z,98490.25
2022-09-20T12:55:13.222Z,98495.66
2022-09-20T12:56:21.551Z,98492.88
2022-09-20T12:57:32.704Z,98494.84
2022-09-20T12:58:45.393Z,98487.91
2022-09-20T12:59:57.879Z,98490.56
2022-09-20T13:01:31.034Z,98477.72
2022-09-20T13:02:58.002Z,98482.97
2022-09-20T13:04:40.580Z,98482.47
2022-09-20T13:05:46.409Z,98487.41
2022-09-20T13:07:29.296Z,98481.00
2022-09-20T13:08:34.440Z,98480.69
2022-09-20T13:09:40.298Z,98485.31
2022-09-20T13:10:51.411Z,98485.63
2022-09-20T13:11:57.350Z,98488.59
2022-09-20T13:13:19.197Z,98480.53
2022-09-20T13:14:26.473Z,98487.25
2022-09-20T13:15:30.233Z,98481.50
2022-09-20T13:16:41.338Z,98479.03
2022-09-20T13:17:44.880Z,98477.09
2022-09-20T13:18:50.023Z,98473.84
2022-09-20T13:19:55.332Z,98477.81
2022-09-20T13:21:02.890Z,98475.19
2022-09-20T13:22:10.332Z,98471.06
2022-09-20T13:23:20.753Z,98467.19
2022-09-20T13:24:27.353Z,98468.63
2022-09-20T13:25:39.907Z,98466.69
2022-09-20T13:26:47.663Z,98469.31
2022-09-20T13:27:59.931Z,98475.06
2022-09-20T13:29:05.004Z,98472.63
2022-09-20T13:30:17.756Z,98483.66
2022-09-20T13:31:29.686Z,98481.13
2022-09-20T13:32:34.858Z,98485.13
2022-09-20T13:33:40.719Z,98486.53
2022-09-20T13:34:45.828Z,98485.13
2022-09-20T13:35:51.560Z,98483.84
2022-09-20T13:36:59.635Z,98481.50
2022-09-20T13:38:07.132Z,98480.75
2022-09-20T13:39:11.241Z,98485.28
2022-09-20T13:40:19.408Z,98490.00
2022-09-20T13:41:25.795Z,98491.44
2022-09-20T13:42:31.778Z,98492.06
2022-09-20T13:43:38.402Z,98490.97
2022-09-20T13:44:44.276Z,98497.88
2022-09-20T13:45:48.385Z,98490.75
2022-09-20T13:46:52.795Z,98488.13
2022-09-20T13:48:00.150Z,98481.03
2022-09-20T13:49:21.040Z,98490.56
2022-09-20T13:50:30.440Z,98488.50
2022-09-20T13:51:35.092Z,98486.19
2022-09-20T13:52:46.604Z,98486.56
2022-09-20T13:53:49.854Z,98488.59
2022-09-20T13:54:55.567Z,98489.16
2022-09-20T13:56:00.493Z,98487.78
2022-09-20T13:57:20.456Z,98481.19
2022-09-20T13:58:27.773Z,98481.81
2022-09-20T13:59:34.204Z,98478.44
2022-09-20T14:00:39.402Z,98482.84
2022-09-20T14:01:45.215Z,98486.13
2022-09-20T14:02:50.823Z,98481.63
2022-09-20T14:03:54.788Z,98486.66
2022-09-20T14:05:01.638Z,98480.81
2022-09-20T14:06:12.674Z,98484.78
2022-09-20T14:07:16.883Z,98483.34
2022-09-20T14:08:24.777Z,98484.47
2022-09-20T14:09:31.194Z,98485.59
2022-09-20T14:10:37.298Z,98486.66
2022-09-20T14:11:42.031Z,98489.88